Time;durP1;ratioP1;P1;durP2;ratioP2;P2;SDS_P1;SDS_P2;PMS_P1;PMS_P2;Temp;Humidity;BMP_temperature;BMP_pressure;BME280_temperature;BME280_humidity;BME280_pressure;Samples;Min_cycle;Max_cycle;Signal;HPM_P1;HPM_P2
2021/12/31 00:07:18;;;;;;;3.65;1.05;;;13.70;99.90;;;;;;20707752;28;20042;-46
2021/12/31 00:17:19;;;;;;;2.40;1.20;;;13.50;99.90;;;;;;20718487;28;20061;-45
2021/12/31 00:27:20;;;;;;;3.35;1.25;;;13.40;99.90;;;;;;20693939;28;20053;-46
2021/12/31 00:37:29;;;;;;;3.78;1.30;;;13.40;99.90;;;;;;20712256;28;20410;-46
2021/12/31 00:47:30;;;;;;;3.60;1.17;;;13.40;99.90;;;;;;20670769;28;20431;-46
2021/12/31 00:57:31;;;;;;;2.83;1.23;;;13.50;99.90;;;;;;20700655;28;20048;-45
2021/12/31 01:07:33;;;;;;;4.15;1.40;;;13.60;99.90;;;;;;20704197;28;20406;-46
2021/12/31 01:27:54;;;;;;;2.42;1.02;;;13.70;99.90;;;;;;20709912;28;20048;-46
2021/12/31 01:37:55;;;;;;;5.50;1.73;;;13.60;99.90;;;;;;20704294;28;20042;-46
2021/12/31 01:48:05;;;;;;;2.50;0.90;;;13.40;99.90;;;;;;20704744;28;20065;-46
2021/12/31 01:58:07;;;;;;;3.33;0.77;;;13.40;99.90;;;;;;20705052;28;20175;-45
2021/12/31 02:08:08;;;;;;;3.03;1.52;;;13.40;99.90;;;;;;20704705;28;20494;-46
2021/12/31 02:18:10;;;;;;;6.45;1.30;;;13.40;99.90;;;;;;20711578;28;20041;-46
2021/12/31 02:28:11;;;;;;;1.88;0.88;;;13.40;99.90;;;;;;20713299;28;20045;-46
2021/12/31 02:38:12;;;;;;;2.28;0.80;;;13.50;99.90;;;;;;20708273;28;20053;-46
2021/12/31 02:48:14;;;;;;;4.40;0.98;;;13.60;99.90;;;;;;20719088;28;20050;-46
2021/12/31 02:58:15;;;;;;;2.72;1.00;;;13.60;99.90;;;;;;20719853;28;20042;-46
2021/12/31 03:08:17;;;;;;;3.40;0.75;;;13.60;99.90;;;;;;20701020;28;20033;-46
2021/12/31 03:18:19;;;;;;;3.47;0.98;;;13.60;99.90;;;;;;20722310;28;20042;-46
2021/12/31 03:28:21;;;;;;;4.18;0.60;;;13.70;99.90;;;;;;20719819;28;20047;-46
2021/12/31 03:38:23;;;;;;;2.63;1.08;;;13.70;99.90;;;;;;20721344;28;20640;-46
2021/12/31 03:48:24;;;;;;;2.92;0.80;;;13.70;99.90;;;;;;20711373;28;20308;-46
2021/12/31 03:58:25;;;;;;;2.33;0.98;;;13.70;99.90;;;;;;20720456;28;20490;-46
2021/12/31 04:08:26;;;;;;;2.63;0.98;;;13.60;99.90;;;;;;20700937;28;20065;-46
2021/12/31 04:18:27;;;;;;;1.75;0.70;;;13.70;99.90;;;;;;20698013;28;20040;-46
2021/12/31 04:28:29;;;;;;;1.73;0.70;;;13.70;99.90;;;;;;20708265;28;20343;-46
2021/12/31 04:38:30;;;;;;;2.42;0.75;;;13.70;99.90;;;;;;20697175;28;20097;-45
2021/12/31 04:48:32;;;;;;;1.85;0.70;;;13.70;99.90;;;;;;20688972;28;20054;-45
2021/12/31 04:58:33;;;;;;;2.90;0.60;;;13.60;99.90;;;;;;20690294;28;20030;-45
2021/12/31 05:08:34;;;;;;;1.20;0.65;;;13.60;99.90;;;;;;20704290;28;20052;-45
2021/12/31 05:18:35;;;;;;;2.10;0.68;;;13.50;99.90;;;;;;20707558;28;20393;-46
2021/12/31 05:28:36;;;;;;;3.08;1.17;;;13.30;99.90;;;;;;20686363;28;20057;-45
2021/12/31 05:38:38;;;;;;;1.10;0.50;;;13.30;99.90;;;;;;20709752;28;20034;-45
2021/12/31 05:48:39;;;;;;;1.50;0.60;;;13.30;99.90;;;;;;20696066;28;20045;-46
2021/12/31 05:58:40;;;;;;;2.92;0.73;;;13.30;99.90;;;;;;20723835;28;20038;-50
2021/12/31 06:08:44;;;;;;;5.05;1.20;;;13.30;99.90;;;;;;20727301;28;20053;-45
2021/12/31 06:18:45;;;;;;;3.17;0.90;;;13.20;99.90;;;;;;20713495;28;20038;-50
2021/12/31 06:28:46;;;;;;;4.50;0.90;;;13.10;99.90;;;;;;20723567;28;20134;-46
2021/12/31 06:38:49;;;;;;;2.20;0.80;;;13.10;99.90;;;;;;20677462;28;20054;-45
2021/12/31 06:48:50;;;;;;;5.13;0.98;;;13.00;99.90;;;;;;20672894;28;20351;-45
2021/12/31 06:58:51;;;;;;;1.48;0.70;;;12.90;99.90;;;;;;20664769;28;20164;-45
2021/12/31 07:08:52;;;;;;;2.03;0.90;;;12.80;99.90;;;;;;20679017;28;20057;-45
2021/12/31 07:18:53;;;;;;;2.92;0.70;;;12.80;99.90;;;;;;20667184;28;20038;-45
2021/12/31 07:28:54;;;;;;;2.72;0.90;;;12.80;99.90;;;;;;20671044;28;20073;-45
2021/12/31 07:39:03;;;;;;;3.35;0.90;;;12.80;99.90;;;;;;20634355;28;20030;-45
2021/12/31 07:49:04;;;;;;;2.00;0.70;;;12.80;99.90;;;;;;20674766;28;20041;-46
2021/12/31 07:59:05;;;;;;;1.75;0.65;;;12.80;99.90;;;;;;20674946;28;20414;-45
2021/12/31 08:09:06;;;;;;;3.15;0.73;;;12.80;99.90;;;;;;20628439;28;20043;-45
2021/12/31 08:19:08;;;;;;;3.38;0.93;;;12.70;99.90;;;;;;20660562;28;20038;-45
2021/12/31 08:29:12;;;;;;;1.52;0.70;;;12.80;99.90;;;;;;20667917;28;20486;-46
2021/12/31 08:39:13;;;;;;;3.45;0.68;;;12.70;99.90;;;;;;20649712;28;20046;-47
2021/12/31 08:49:15;;;;;;;2.47;1.05;;;12.70;99.90;;;;;;20651536;28;20034;-46
2021/12/31 08:59:19;;;;;;;2.83;0.85;;;12.70;99.90;;;;;;20654216;28;20100;-46
2021/12/31 09:09:20;;;;;;;2.65;1.20;;;12.70;99.90;;;;;;20658237;28;20034;-46
2021/12/31 09:19:21;;;;;;;2.50;0.85;;;12.80;99.90;;;;;;20649530;28;20041;-46
2021/12/31 09:29:23;;;;;;;6.35;0.90;;;12.80;99.90;;;;;;20675461;28;20037;-46
2021/12/31 09:39:24;;;;;;;2.53;0.82;;;12.80;99.90;;;;;;20631860;28;20053;-46
2021/12/31 09:49:25;;;;;;;2.97;1.23;;;12.90;99.90;;;;;;20661071;28;20526;-47
2021/12/31 09:59:27;;;;;;;2.00;0.77;;;12.80;99.90;;;;;;20691457;28;20060;-47
2021/12/31 10:09:29;;;;;;;5.70;1.10;;;12.80;99.90;;;;;;20695471;28;20533;-47
2021/12/31 10:19:30;;;;;;;3.95;1.08;;;12.80;99.90;;;;;;20695466;28;20058;-46
2021/12/31 10:29:31;;;;;;;4.03;1.33;;;12.90;99.90;;;;;;20681110;28;20046;-46
2021/12/31 10:39:37;;;;;;;5.18;1.27;;;12.90;99.90;;;;;;20703736;28;20511;-46
2021/12/31 10:50:01;;;;;;;5.65;2.70;;;12.90;99.90;;;;;;20712069;28;20042;-47
2021/12/31 11:00:09;;;;;;;6.03;1.40;;;12.90;99.90;;;;;;20686579;28;20050;-46
2021/12/31 11:10:11;;;;;;;2.50;1.08;;;13.00;99.90;;;;;;20659303;28;20045;-46
2021/12/31 11:20:18;;;;;;;3.55;0.90;;;13.40;99.90;;;;;;20695413;28;20060;-46
2021/12/31 11:30:39;;;;;;;3.50;1.23;;;13.50;99.90;;;;;;20700943;28;20038;-46
2021/12/31 11:40:45;;;;;;;4.07;1.58;;;13.40;99.90;;;;;;20699023;28;20347;-46
2021/12/31 11:51:03;;;;;;;5.05;1.60;;;13.00;99.90;;;;;;20680742;28;20041;-46
2021/12/31 12:01:51;;;;;;;5.90;1.25;;;12.90;99.90;;;;;;20637398;28;20065;-45
2021/12/31 12:12:13;;;;;;;4.27;1.20;;;13.00;99.90;;;;;;20677454;28;20053;-46
2021/12/31 12:22:33;;;;;;;3.15;1.17;;;13.00;99.90;;;;;;20688790;28;20046;-46
2021/12/31 12:32:53;;;;;;;2.55;1.33;;;13.30;99.90;;;;;;20682666;28;20108;-46
2021/12/31 12:42:54;;;;;;;2.90;1.58;;;13.50;99.90;;;;;;20655409;28;20045;-46
2021/12/31 12:52:56;;;;;;;4.30;1.90;;;13.30;99.90;;;;;;20647459;28;20046;-47
2021/12/31 13:03:03;;;;;;;4.93;1.75;;;13.10;99.90;;;;;;20643654;28;20038;-46
2021/12/31 13:13:05;;;;;;;4.85;1.83;;;13.10;99.90;;;;;;20685308;28;20033;-46
2021/12/31 13:23:09;;;;;;;5.57;1.30;;;13.40;99.90;;;;;;20686738;28;20045;-47
2021/12/31 13:33:24;;;;;;;5.55;1.58;;;13.50;99.90;;;;;;20690800;28;20030;-46
2021/12/31 13:43:25;;;;;;;8.15;1.90;;;13.50;99.90;;;;;;20679488;28;20049;-46
2021/12/31 13:53:26;;;;;;;11.15;2.80;;;13.50;99.90;;;;;;20699849;28;20037;-46
2021/12/31 14:03:27;;;;;;;3.83;1.63;;;13.40;99.90;;;;;;20711634;28;20046;-47
2021/12/31 14:13:29;;;;;;;11.73;1.70;;;13.30;99.90;;;;;;20723688;28;20041;-47
2021/12/31 14:23:30;;;;;;;4.63;1.83;;;13.20;99.90;;;;;;20721802;28;20045;-47
2021/12/31 14:33:31;;;;;;;8.82;1.70;;;13.10;99.90;;;;;;20708590;28;20122;-47
2021/12/31 14:43:33;;;;;;;3.72;1.17;;;13.20;99.90;;;;;;20663808;28;20042;-47
2021/12/31 14:53:34;;;;;;;3.90;1.73;;;13.10;99.90;;;;;;20673259;28;20053;-46
2021/12/31 15:03:35;;;;;;;4.53;1.30;;;13.10;99.90;;;;;;20644420;28;20046;-46
2021/12/31 15:13:36;;;;;;;9.65;2.55;;;13.10;99.90;;;;;;20701667;28;20513;-46
2021/12/31 15:23:37;;;;;;;5.43;2.22;;;13.00;99.90;;;;;;20707508;28;20053;-46
2021/12/31 15:33:39;;;;;;;7.32;2.60;;;12.80;99.90;;;;;;20702274;28;20042;-46
2021/12/31 15:43:42;;;;;;;7.40;2.58;;;12.80;99.90;;;;;;20671938;28;20062;-46
2021/12/31 15:53:44;;;;;;;9.73;3.38;;;12.60;99.90;;;;;;20689043;28;20045;-46
2021/12/31 16:03:45;;;;;;;7.45;2.65;;;12.40;99.90;;;;;;20692480;28;20046;-46
2021/12/31 16:13:46;;;;;;;12.77;3.75;;;12.20;99.90;;;;;;20693551;28;20041;-46
2021/12/31 16:23:47;;;;;;;7.35;3.40;;;12.10;99.90;;;;;;20687799;28;20061;-46
2021/12/31 16:33:48;;;;;;;7.90;2.60;;;11.90;99.90;;;;;;20699681;28;20083;-47
2021/12/31 16:43:49;;;;;;;12.50;3.75;;;11.90;99.90;;;;;;20695494;28;20072;-46
2021/12/31 16:53:50;;;;;;;13.43;4.55;;;11.80;99.90;;;;;;20693492;28;20045;-46
2021/12/31 17:03:52;;;;;;;11.27;3.50;;;11.80;99.90;;;;;;20686362;28;20764;-46
2021/12/31 17:13:53;;;;;;;13.70;5.88;;;11.80;99.90;;;;;;20691937;28;20367;-46
2021/12/31 17:23:54;;;;;;;15.43;4.25;;;11.80;99.90;;;;;;20698096;28;20046;-46
2021/12/31 17:33:55;;;;;;;11.15;4.68;;;11.70;99.90;;;;;;20695556;28;20501;-46
2021/12/31 17:43:57;;;;;;;16.40;6.95;;;11.80;99.90;;;;;;20698082;28;20050;-46
2021/12/31 17:53:59;;;;;;;19.08;6.78;;;11.90;99.90;;;;;;20708863;28;20048;-46
2021/12/31 18:04:00;;;;;;;14.30;5.13;;;12.00;99.90;;;;;;20710282;28;20049;-46
2021/12/31 18:14:01;;;;;;;21.13;7.88;;;12.00;99.90;;;;;;20708031;28;20041;-46
2021/12/31 18:24:02;;;;;;;15.88;7.88;;;12.00;99.90;;;;;;20711778;28;20061;-46
2021/12/31 18:34:03;;;;;;;12.80;5.60;;;11.90;99.90;;;;;;20714896;28;20037;-46
2021/12/31 18:44:06;;;;;;;19.30;6.60;;;12.00;99.90;;;;;;20701933;28;20266;-46
2021/12/31 18:54:08;;;;;;;27.77;7.85;;;12.10;99.90;;;;;;20700452;28;20453;-46
2021/12/31 19:04:09;;;;;;;21.40;6.82;;;12.20;99.90;;;;;;20718758;28;20065;-46
2021/12/31 19:14:10;;;;;;;14.07;6.95;;;12.20;99.90;;;;;;20702562;28;20487;-46
2021/12/31 19:24:11;;;;;;;17.80;7.50;;;12.30;99.90;;;;;;20699520;28;20060;-46
2021/12/31 19:34:12;;;;;;;18.48;5.18;;;12.30;99.90;;;;;;20706227;28;20042;-46
2021/12/31 19:44:13;;;;;;;11.95;4.30;;;12.40;99.90;;;;;;20700015;28;20050;-47
2021/12/31 19:54:14;;;;;;;28.67;14.40;;;12.30;99.90;;;;;;20697885;28;20517;-46
2021/12/31 20:04:15;;;;;;;27.63;11.45;;;12.30;99.90;;;;;;20688624;28;20061;-46
2021/12/31 20:14:17;;;;;;;23.23;10.80;;;12.30;99.90;;;;;;20688080;28;20465;-46
2021/12/31 20:24:19;;;;;;;52.95;21.60;;;12.10;99.90;;;;;;20706216;28;20057;-46
2021/12/31 20:34:21;;;;;;;36.63;13.55;;;12.10;99.90;;;;;;20697070;28;20494;-46
2021/12/31 20:44:22;;;;;;;27.92;10.80;;;12.00;99.90;;;;;;20693765;28;20046;-46
2021/12/31 20:54:24;;;;;;;29.67;11.32;;;12.10;99.90;;;;;;20690797;28;20041;-46
2021/12/31 21:04:25;;;;;;;21.55;9.00;;;12.00;99.90;;;;;;20699049;28;20067;-46
2021/12/31 21:14:27;;;;;;;20.92;8.60;;;12.00;99.90;;;;;;20693194;28;20619;-46
2021/12/31 21:24:28;;;;;;;16.05;8.10;;;11.90;99.90;;;;;;20691964;28;20045;-46
2021/12/31 21:34:29;;;;;;;26.63;9.52;;;12.00;99.90;;;;;;20669365;28;21362;-46
2021/12/31 21:44:31;;;;;;;31.05;14.15;;;12.00;99.90;;;;;;20696665;28;20049;-46
2021/12/31 21:54:33;;;;;;;19.45;11.00;;;11.90;99.90;;;;;;20697040;28;20036;-46
2021/12/31 22:04:34;;;;;;;36.38;10.05;;;11.90;99.90;;;;;;20691199;28;20053;-46
2021/12/31 22:14:35;;;;;;;21.15;8.27;;;11.90;99.90;;;;;;20695389;28;20038;-46
2021/12/31 22:24:39;;;;;;;14.52;6.55;;;11.70;99.90;;;;;;20672111;28;20165;-46
2021/12/31 22:34:40;;;;;;;18.77;5.65;;;11.70;99.90;;;;;;20695619;28;20050;-46
2021/12/31 22:44:41;;;;;;;21.42;6.53;;;11.60;99.90;;;;;;20710530;28;20054;-46
2021/12/31 22:54:42;;;;;;;22.25;7.03;;;11.60;99.90;;;;;;20699630;28;20045;-46
2021/12/31 23:04:44;;;;;;;29.50;12.65;;;11.60;99.90;;;;;;20665646;28;20037;-46
2021/12/31 23:14:45;;;;;;;158.10;66.03;;;11.40;99.90;;;;;;20691711;28;20617;-46
2021/12/31 23:24:47;;;;;;;86.70;38.25;;;11.10;99.90;;;;;;20713303;28;20053;-46
2021/12/31 23:34:48;;;;;;;80.10;35.90;;;11.00;99.90;;;;;;20688474;28;20315;-46
2021/12/31 23:44:49;;;;;;;78.97;34.75;;;10.90;99.90;;;;;;20698764;28;20042;-46
2021/12/31 23:54:51;;;;;;;81.35;32.15;;;11.00;99.90;;;;;;20701557;28;20049;-46
